sensor_id;sensor_type;location;lat;lon;timestamp;pressure;altitude;pressure_sealevel;temperature;humidity
73870;BME280;64924;42.140;24.762;2023-11-22T00:00:41;99030.34;;;12.90;49.47
73870;BME280;64924;42.140;24.762;2023-11-22T00:03:07;99022.22;;;12.83;49.39
73870;BME280;64924;42.140;24.762;2023-11-22T00:05:32;99022.50;;;12.75;49.50
73870;BME280;64924;42.140;24.762;2023-11-22T00:07:58;99029.25;;;12.72;49.43
73870;BME280;64924;42.140;24.762;2023-11-22T00:10:23;99022.56;;;12.68;49.61
73870;BME280;64924;42.140;24.762;2023-11-22T00:12:49;99019.63;;;12.70;49.43
73870;BME280;64924;42.140;24.762;2023-11-22T00:15:15;99008.03;;;12.56;49.80
73870;BME280;64924;42.140;24.762;2023-11-22T00:17:44;99016.81;;;12.58;49.89
73870;BME280;64924;42.140;24.762;2023-11-22T00:20:10;99016.13;;;12.63;50.11
73870;BME280;64924;42.140;24.762;2023-11-22T00:22:36;98965.91;;;12.34;50.10
73870;BME280;64924;42.140;24.762;2023-11-22T00:25:02;99015.91;;;12.64;49.92
73870;BME280;64924;42.140;24.762;2023-11-22T00:27:29;98991.69;;;12.56;49.85
73870;BME280;64924;42.140;24.762;2023-11-22T00:29:58;99001.31;;;12.59;50.09
73870;BME280;64924;42.140;24.762;2023-11-22T00:32:24;98991.38;;;12.46;50.13
73870;BME280;64924;42.140;24.762;2023-11-22T00:34:49;99004.53;;;12.49;49.80
73870;BME280;64924;42.140;24.762;2023-11-22T00:37:15;98985.38;;;12.37;49.65
73870;BME280;64924;42.140;24.762;2023-11-22T00:39:41;99008.03;;;12.56;49.66
73870;BME280;64924;42.140;24.762;2023-11-22T00:42:07;99008.03;;;12.56;49.85
73870;BME280;64924;42.140;24.762;2023-11-22T00:44:33;99010.94;;;12.61;49.45
73870;BME280;64924;42.140;24.762;2023-11-22T00:46:58;98996.31;;;12.56;49.54
73870;BME280;64924;42.140;24.762;2023-11-22T00:49:24;98992.44;;;12.63;49.09
73870;BME280;64924;42.140;24.762;2023-11-22T00:51:50;98995.78;;;12.65;49.57
73870;BME280;64924;42.140;24.762;2023-11-22T00:54:16;98995.53;;;12.67;49.00
73870;BME280;64924;42.140;24.762;2023-11-22T00:56:42;98993.13;;;12.59;49.02
73870;BME280;64924;42.140;24.762;2023-11-22T00:59:07;99014.63;;;12.67;49.00
73870;BME280;64924;42.140;24.762;2023-11-22T01:01:34;98975.47;;;12.43;48.91
73870;BME280;64924;42.140;24.762;2023-11-22T01:03:59;99003.06;;;12.71;49.13
73870;BME280;64924;42.140;24.762;2023-11-22T01:06:25;99001.38;;;12.70;48.66
73870;BME280;64924;42.140;24.762;2023-11-22T01:08:50;98978.59;;;12.65;48.51
73870;BME280;64924;42.140;24.762;2023-11-22T01:11:16;98995.25;;;12.75;48.62
73870;BME280;64924;42.140;24.762;2023-11-22T01:13:41;98988.38;;;12.72;48.66
73870;BME280;64924;42.140;24.762;2023-11-22T01:16:08;98995.25;;;12.75;48.61
73870;BME280;64924;42.140;24.762;2023-11-22T01:18:34;98989.56;;;12.77;48.34
73870;BME280;64924;42.140;24.762;2023-11-22T01:21:00;98986.41;;;12.80;48.27
73870;BME280;64924;42.140;24.762;2023-11-22T01:23:25;98981.63;;;12.75;48.56
73870;BME280;64924;42.140;24.762;2023-11-22T01:25:53;98997.16;;;12.75;48.48
73870;BME280;64924;42.140;24.762;2023-11-22T01:28:19;98989.81;;;12.75;48.61
73870;BME280;64924;42.140;24.762;2023-11-22T01:30:44;98989.56;;;12.77;48.47
73870;BME280;64924;42.140;24.762;2023-11-22T01:33:11;98984.19;;;12.70;48.44
73870;BME280;64924;42.140;24.762;2023-11-22T01:35:37;98984.19;;;12.70;48.62
73870;BME280;64924;42.140;24.762;2023-11-22T01:38:04;98973.34;;;12.63;48.67
73870;BME280;64924;42.140;24.762;2023-11-22T01:40:30;98983.53;;;12.75;48.43
73870;BME280;64924;42.140;24.762;2023-11-22T01:42:57;98972.22;;;12.71;48.03
73870;BME280;64924;42.140;24.762;2023-11-22T01:45:22;98975.94;;;12.77;47.95
73870;BME280;64924;42.140;24.762;2023-11-22T01:47:48;98959.66;;;12.70;47.90
73870;BME280;64924;42.140;24.762;2023-11-22T01:50:14;98974.66;;;12.79;47.91
73870;BME280;64924;42.140;24.762;2023-11-22T01:52:40;98975.94;;;12.77;48.07
73870;BME280;64924;42.140;24.762;2023-11-22T01:55:06;98980.50;;;12.83;47.60
73870;BME280;64924;42.140;24.762;2023-11-22T01:57:34;98983.44;;;12.81;47.96
73870;BME280;64924;42.140;24.762;2023-11-22T02:00:02;98969.16;;;12.86;47.98
73870;BME280;64924;42.140;24.762;2023-11-22T02:02:30;98968.38;;;12.79;47.79
73870;BME280;64924;42.140;24.762;2023-11-22T02:04:56;98967.94;;;12.82;47.78
73870;BME280;64924;42.140;24.762;2023-11-22T02:07:21;98964.16;;;12.83;48.01
73870;BME280;64924;42.140;24.762;2023-11-22T02:09:47;98953.53;;;12.75;47.96
73870;BME280;64924;42.140;24.762;2023-11-22T02:12:12;98966.50;;;12.79;48.19
73870;BME280;64924;42.140;24.762;2023-11-22T02:14:38;98952.47;;;12.76;48.00
73870;BME280;64924;42.140;24.762;2023-11-22T02:17:04;98967.00;;;12.69;48.39
73870;BME280;64924;42.140;24.762;2023-11-22T02:19:29;98969.50;;;12.71;48.46
73870;BME280;64924;42.140;24.762;2023-11-22T02:21:58;98967.00;;;12.69;48.46
73870;BME280;64924;42.140;24.762;2023-11-22T02:24:24;98975.56;;;12.73;48.76
73870;BME280;64924;42.140;24.762;2023-11-22T02:26:50;98960.50;;;12.70;48.70
73870;BME280;64924;42.140;24.762;2023-11-22T02:29:15;98952.63;;;12.62;49.00
73870;BME280;64924;42.140;24.762;2023-11-22T02:31:42;98960.06;;;12.55;49.36
73870;BME280;64924;42.140;24.762;2023-11-22T02:34:08;98953.38;;;12.51;49.16
73870;BME280;64924;42.140;24.762;2023-11-22T02:36:34;98954.16;;;12.58;49.15
73870;BME280;64924;42.140;24.762;2023-11-22T02:38:59;98954.16;;;12.58;49.29
73870;BME280;64924;42.140;24.762;2023-11-22T02:41:29;98955.13;;;12.64;49.36
73870;BME280;64924;42.140;24.762;2023-11-22T02:43:57;98963.63;;;12.56;49.40
73870;BME280;64924;42.140;24.762;2023-11-22T02:46:23;98965.50;;;12.55;49.76
73870;BME280;64924;42.140;24.762;2023-11-22T02:48:49;98950.88;;;12.50;49.80
73870;BME280;64924;42.140;24.762;2023-11-22T02:51:14;98947.78;;;12.46;49.85
73870;BME280;64924;42.140;24.762;2023-11-22T02:53:41;98960.34;;;12.47;49.72
73870;BME280;64924;42.140;24.762;2023-11-22T02:56:10;98951.44;;;12.58;49.71
73870;BME280;64924;42.140;24.762;2023-11-22T02:58:36;98950.34;;;12.41;49.94
73870;BME280;64924;42.140;24.762;2023-11-22T03:01:01;98956.78;;;12.47;49.79
73870;BME280;64924;42.140;24.762;2023-11-22T03:03:27;98976.25;;;12.50;50.01
73870;BME280;64924;42.140;24.762;2023-11-22T03:05:53;98984.41;;;12.50;50.16
73870;BME280;64924;42.140;24.762;2023-11-22T03:08:19;98932.94;;;12.24;50.21
73870;BME280;64924;42.140;24.762;2023-11-22T03:10:45;98950.69;;;12.26;50.43
73870;BME280;64924;42.140;24.762;2023-11-22T03:13:11;98966.69;;;12.41;50.65
73870;BME280;64924;42.140;24.762;2023-11-22T03:15:36;98964.56;;;12.43;50.27
73870;BME280;64924;42.140;24.762;2023-11-22T03:18:02;98907.41;;;12.18;50.27
73870;BME280;64924;42.140;24.762;2023-11-22T03:20:30;98946.56;;;12.42;50.32
73870;BME280;64924;42.140;24.762;2023-11-22T03:22:58;98951.56;;;12.45;50.43
73870;BME280;64924;42.140;24.762;2023-11-22T03:25:23;98942.78;;;12.43;50.49
73870;BME280;64924;42.140;24.762;2023-11-22T03:27:49;98897.75;;;12.22;50.49
73870;BME280;64924;42.140;24.762;2023-11-22T03:30:14;98922.25;;;12.41;50.66
73870;BME280;64924;42.140;24.762;2023-11-22T03:32:40;98923.53;;;12.38;51.00
73870;BME280;64924;42.140;24.762;2023-11-22T03:35:07;98923.53;;;12.38;51.15
73870;BME280;64924;42.140;24.762;2023-11-22T03:37:33;98929.81;;;12.38;50.79
73870;BME280;64924;42.140;24.762;2023-11-22T03:39:59;98887.16;;;12.14;51.00
73870;BME280;64924;42.140;24.762;2023-11-22T03:42:25;98938.38;;;12.42;50.60
73870;BME280;64924;42.140;24.762;2023-11-22T03:44:52;98953.06;;;12.41;50.96
73870;BME280;64924;42.140;24.762;2023-11-22T03:47:17;98964.63;;;12.36;51.10
73870;BME280;64924;42.140;24.762;2023-11-22T03:49:43;98978.25;;;12.36;51.23
73870;BME280;64924;42.140;24.762;2023-11-22T03:52:10;98957.56;;;12.29;51.54
73870;BME280;64924;42.140;24.762;2023-11-22T03:54:36;98952.56;;;12.26;51.27
73870;BME280;64924;42.140;24.762;2023-11-22T03:57:03;98955.47;;;12.31;51.36
73870;BME280;64924;42.140;24.762;2023-11-22T03:59:28;98942.00;;;12.18;51.61
73870;BME280;64924;42.140;24.762;2023-11-22T04:01:54;98957.88;;;12.21;51.86
73870;BME280;64924;42.140;24.762;2023-11-22T04:04:20;98957.19;;;12.25;51.85
73870;BME280;64924;42.140;24.762;2023-11-22T04:06:45;98964.06;;;12.28;51.74
73870;BME280;64924;42.140;24.762;2023-11-22T04:09:11;98969.69;;;12.33;51.54
73870;BME280;64924;42.140;24.762;2023-11-22T04:11:39;98980.59;;;12.33;51.58
73870;BME280;64924;42.140;24.762;2023-11-22T04:14:05;98974.53;;;12.31;51.51
73870;BME280;64924;42.140;24.762;2023-11-22T04:16:31;98977.47;;;12.29;51.84
73870;BME280;64924;42.140;24.762;2023-11-22T04:18:57;98940.00;;;12.07;51.72
73870;BME280;64924;42.140;24.762;2023-11-22T04:21:23;98969.75;;;12.26;51.88
73870;BME280;64924;42.140;24.762;2023-11-22T04:23:49;98967.50;;;11.98;52.95
73870;BME280;64924;42.140;24.762;2023-11-22T04:26:15;98967.66;;;12.03;52.68
73870;BME280;64924;42.140;24.762;2023-11-22T04:28:41;98968.22;;;12.12;52.55
73870;BME280;64924;42.140;24.762;2023-11-22T04:31:07;98966.94;;;12.15;52.22
73870;BME280;64924;42.140;24.762;2023-11-22T04:33:34;98942.75;;;12.00;52.22
73870;BME280;64924;42.140;24.762;2023-11-22T04:35:59;98989.81;;;12.32;51.85
73870;BME280;64924;42.140;24.762;2023-11-22T04:38:26;98976.56;;;12.17;51.78
73870;BME280;64924;42.140;24.762;2023-11-22T04:40:51;98985.66;;;12.29;51.60
73870;BME280;64924;42.140;24.762;2023-11-22T04:43:17;98993.09;;;12.41;51.32
73870;BME280;64924;42.140;24.762;2023-11-22T04:45:43;98981.38;;;12.40;51.24
73870;BME280;64924;42.140;24.762;2023-11-22T04:48:09;98953.50;;;12.20;51.25
73870;BME280;64924;42.140;24.762;2023-11-22T04:50:35;98994.16;;;12.39;51.73
73870;BME280;64924;42.140;24.762;2023-11-22T04:53:01;99028.69;;;12.46;51.60
73870;BME280;64924;42.140;24.762;2023-11-22T04:55:29;99009.31;;;12.29;51.57
73870;BME280;64924;42.140;24.762;2023-11-22T04:57:55;99032.72;;;12.36;51.69
73870;BME280;64924;42.140;24.762;2023-11-22T05:00:21;99028.72;;;12.39;51.53
73870;BME280;64924;42.140;24.762;2023-11-22T05:02:48;99026.41;;;12.43;51.53
73870;BME280;64924;42.140;24.762;2023-11-22T05:05:13;99032.72;;;12.36;51.55
73870;BME280;64924;42.140;24.762;2023-11-22T05:07:39;99015.34;;;12.13;51.95
73870;BME280;64924;42.140;24.762;2023-11-22T05:10:05;99054.31;;;12.38;51.69
73870;BME280;64924;42.140;24.762;2023-11-22T05:12:33;99059.97;;;12.36;51.78
73870;BME280;64924;42.140;24.762;2023-11-22T05:14:58;99060.19;;;12.35;51.93
73870;BME280;64924;42.140;24.762;2023-11-22T05:17:24;99059.63;;;12.26;52.23
73870;BME280;64924;42.140;24.762;2023-11-22T05:19:50;99070.69;;;12.31;51.75
73870;BME280;64924;42.140;24.762;2023-11-22T05:22:16;99027.72;;;12.09;51.88
73870;BME280;64924;42.140;24.762;2023-11-22T05:24:42;99055.63;;;12.29;51.96
73870;BME280;64924;42.140;24.762;2023-11-22T05:27:08;99053.53;;;12.31;51.67
73870;BME280;64924;42.140;24.762;2023-11-22T05:29:34;99044.59;;;12.24;51.48
73870;BME280;64924;42.140;24.762;2023-11-22T05:32:00;99057.81;;;12.20;52.03
73870;BME280;64924;42.140;24.762;2023-11-22T05:34:26;99033.44;;;12.00;52.01
73870;BME280;64924;42.140;24.762;2023-11-22T05:36:52;99078.69;;;12.26;51.90
73870;BME280;64924;42.140;24.762;2023-11-22T05:39:18;99092.88;;;12.35;51.52
73870;BME280;64924;42.140;24.762;2023-11-22T05:41:43;99072.75;;;12.36;51.30
73870;BME280;64924;42.140;24.762;2023-11-22T05:44:09;99089.31;;;12.34;51.57
73870;BME280;64924;42.140;24.762;2023-11-22T05:46:35;99090.41;;;12.27;51.80
73870;BME280;64924;42.140;24.762;2023-11-22T05:49:00;99096.72;;;12.27;51.95
73870;BME280;64924;42.140;24.762;2023-11-22T05:51:26;99098.78;;;12.32;51.92
73870;BME280;64924;42.140;24.762;2023-11-22T05:53:52;99097.88;;;12.38;51.65
73870;BME280;64924;42.140;24.762;2023-11-22T05:56:17;99117.94;;;12.50;51.56
73870;BME280;64924;42.140;24.762;2023-11-22T05:58:43;99110.03;;;12.42;51.63
73870;BME280;64924;42.140;24.762;2023-11-22T06:01:08;99112.34;;;12.38;52.14
73870;BME280;64924;42.140;24.762;2023-11-22T06:03:35;99094.66;;;12.23;51.89
73870;BME280;64924;42.140;24.762;2023-11-22T06:06:01;99118.84;;;12.37;51.82
73870;BME280;64924;42.140;24.762;2023-11-22T06:08:28;99086.63;;;12.03;51.63
73870;BME280;64924;42.140;24.762;2023-11-22T06:10:54;99076.91;;;12.14;51.65
73870;BME280;64924;42.140;24.762;2023-11-22T06:13:22;99094.06;;;12.21;51.68
73870;BME280;64924;42.140;24.762;2023-11-22T06:15:48;99108.06;;;12.24;51.94
73870;BME280;64924;42.140;24.762;2023-11-22T06:18:13;99098.00;;;12.25;51.80
73870;BME280;64924;42.140;24.762;2023-11-22T06:20:40;99064.56;;;12.11;51.87
73870;BME280;64924;42.140;24.762;2023-11-22T06:23:06;99120.47;;;12.45;52.05
73870;BME280;64924;42.140;24.762;2023-11-22T06:25:32;99100.97;;;12.48;51.93
73870;BME280;64924;42.140;24.762;2023-11-22T06:27:57;99102.03;;;12.47;51.82
73870;BME280;64924;42.140;24.762;2023-11-22T06:30:23;99101.00;;;12.42;52.29
73870;BME280;64924;42.140;24.762;2023-11-22T06:32:50;99119.59;;;12.51;52.16
73870;BME280;64924;42.140;24.762;2023-11-22T06:35:16;99134.66;;;12.54;52.90
73870;BME280;64924;42.140;24.762;2023-11-22T06:37:43;99137.19;;;12.55;52.93
73870;BME280;64924;42.140;24.762;2023-11-22T06:40:10;99144.59;;;12.66;53.23
73870;BME280;64924;42.140;24.762;2023-11-22T06:42:38;99114.97;;;12.52;53.58
73870;BME280;64924;42.140;24.762;2023-11-22T06:45:05;99152.47;;;12.81;53.66
73870;BME280;64924;42.140;24.762;2023-11-22T06:47:32;99153.91;;;12.84;53.39
73870;BME280;64924;42.140;24.762;2023-11-22T06:49:57;99154.31;;;12.87;53.25
73870;BME280;64924;42.140;24.762;2023-11-22T06:52:23;99161.59;;;12.93;52.78
73870;BME280;64924;42.140;24.762;2023-11-22T06:54:49;99041.69;;;12.19;53.59
73870;BME280;64924;42.140;24.762;2023-11-22T06:57:15;99174.56;;;12.98;53.31
73870;BME280;64924;42.140;24.762;2023-11-22T06:59:41;99162.44;;;12.94;53.06
73870;BME280;64924;42.140;24.762;2023-11-22T07:02:07;99174.91;;;13.01;53.04
73870;BME280;64924;42.140;24.762;2023-11-22T07:04:32;99178.84;;;12.87;53.98
73870;BME280;64924;42.140;24.762;2023-11-22T07:06:58;99174.31;;;12.75;54.36
73870;BME280;64924;42.140;24.762;2023-11-22T07:09:23;99178.97;;;12.67;54.07
73870;BME280;64924;42.140;24.762;2023-11-22T07:11:50;99159.16;;;12.60;54.20
73870;BME280;64924;42.140;24.762;2023-11-22T07:14:17;99148.16;;;12.42;55.13
73870;BME280;64924;42.140;24.762;2023-11-22T07:16:42;99133.97;;;12.33;55.49
73870;BME280;64924;42.140;24.762;2023-11-22T07:19:08;99154.25;;;12.37;55.68
73870;BME280;64924;42.140;24.762;2023-11-22T07:21:33;99150.41;;;12.52;55.04
73870;BME280;64924;42.140;24.762;2023-11-22T07:24:03;99161.78;;;12.67;55.08
73870;BME280;64924;42.140;24.762;2023-11-22T07:26:28;99173.97;;;12.64;55.15
73870;BME280;64924;42.140;24.762;2023-11-22T07:28:55;99168.81;;;12.56;54.67
73870;BME280;64924;42.140;24.762;2023-11-22T07:31:21;99158.84;;;12.68;54.38
73870;BME280;64924;42.140;24.762;2023-11-22T07:33:48;99178.63;;;12.89;54.35
73870;BME280;64924;42.140;24.762;2023-11-22T07:36:13;99164.25;;;13.00;54.22
73870;BME280;64924;42.140;24.762;2023-11-22T07:38:40;99162.34;;;13.00;53.97
73870;BME280;64924;42.140;24.762;2023-11-22T07:41:06;99170.63;;;13.12;54.02
73870;BME280;64924;42.140;24.762;2023-11-22T07:43:36;99166.81;;;13.20;53.49
73870;BME280;64924;42.140;24.762;2023-11-22T07:46:05;99153.81;;;13.15;53.28
73870;BME280;64924;42.140;24.762;2023-11-22T07:48:33;99135.06;;;13.00;53.50
73870;BME280;64924;42.140;24.762;2023-11-22T07:51:02;99170.63;;;13.19;54.03
73870;BME280;64924;42.140;24.762;2023-11-22T07:53:28;99166.59;;;12.96;54.82
73870;BME280;64924;42.140;24.762;2023-11-22T07:55:54;99176.97;;;13.06;54.28
73870;BME280;64924;42.140;24.762;2023-11-22T07:58:21;99144.41;;;12.93;54.47
73870;BME280;64924;42.140;24.762;2023-11-22T08:00:46;99171.13;;;13.02;55.10
73870;BME280;64924;42.140;24.762;2023-11-22T08:03:12;99193.91;;;13.15;55.40
73870;BME280;64924;42.140;24.762;2023-11-22T08:05:40;99150.31;;;12.90;54.99
73870;BME280;64924;42.140;24.762;2023-11-22T08:08:06;99183.22;;;13.13;55.57
73870;BME280;64924;42.140;24.762;2023-11-22T08:10:36;99189.19;;;13.28;55.12
73870;BME280;64924;42.140;24.762;2023-11-22T08:13:01;99162.66;;;12.92;55.76
73870;BME280;64924;42.140;24.762;2023-11-22T08:15:28;99194.34;;;13.12;55.92
73870;BME280;64924;42.140;24.762;2023-11-22T08:17:54;99200.63;;;13.12;55.79
73870;BME280;64924;42.140;24.762;2023-11-22T08:20:19;99197.69;;;13.14;55.43
73870;BME280;64924;42.140;24.762;2023-11-22T08:22:45;99200.41;;;13.14;55.82
73870;BME280;64924;42.140;24.762;2023-11-22T08:25:11;99189.94;;;13.17;55.63
73870;BME280;64924;42.140;24.762;2023-11-22T08:27:39;99192.44;;;13.19;55.60
73870;BME280;64924;42.140;24.762;2023-11-22T08:30:07;99190.16;;;13.16;56.99
73870;BME280;64924;42.140;24.762;2023-11-22T08:32:34;99183.94;;;13.02;56.87
73870;BME280;64924;42.140;24.762;2023-11-22T08:35:00;99135.28;;;12.81;56.83
73870;BME280;64924;42.140;24.762;2023-11-22T08:37:26;99171.91;;;13.16;56.08
73870;BME280;64924;42.140;24.762;2023-11-22T08:39:52;99169.34;;;13.15;55.86
73870;BME280;64924;42.140;24.762;2023-11-22T08:42:17;99198.59;;;13.32;55.89
73870;BME280;64924;42.140;24.762;2023-11-22T08:44:43;99189.81;;;13.30;56.06
73870;BME280;64924;42.140;24.762;2023-11-22T08:47:08;99187.47;;;13.34;56.19
73870;BME280;64924;42.140;24.762;2023-11-22T08:49:34;99195.56;;;13.41;56.14
73870;BME280;64924;42.140;24.762;2023-11-22T08:52:00;99191.66;;;13.36;56.42
73870;BME280;64924;42.140;24.762;2023-11-22T08:54:28;99191.78;;;13.42;57.64
73870;BME280;64924;42.140;24.762;2023-11-22T08:56:54;99203.53;;;13.42;57.69
73870;BME280;64924;42.140;24.762;2023-11-22T08:59:22;99187.75;;;13.44;57.37
73870;BME280;64924;42.140;24.762;2023-11-22T09:01:47;99187.47;;;13.52;57.16
73870;BME280;64924;42.140;24.762;2023-11-22T09:04:12;99197.09;;;13.55;57.06
73870;BME280;64924;42.140;24.762;2023-11-22T09:06:39;99201.28;;;13.57;56.86
73870;BME280;64924;42.140;24.762;2023-11-22T09:09:04;99193.09;;;13.57;57.35
73870;BME280;64924;42.140;24.762;2023-11-22T09:11:31;99147.16;;;13.36;57.36
73870;BME280;64924;42.140;24.762;2023-11-22T09:13:57;99197.66;;;13.63;56.97
73870;BME280;64924;42.140;24.762;2023-11-22T09:16:23;99156.22;;;13.48;56.45
73870;BME280;64924;42.140;24.762;2023-11-22T09:18:50;99212.41;;;13.74;55.72
73870;BME280;64924;42.140;24.762;2023-11-22T09:21:16;99205.78;;;13.70;55.30
73870;BME280;64924;42.140;24.762;2023-11-22T09:23:45;99200.69;;;13.74;54.47
73870;BME280;64924;42.140;24.762;2023-11-22T09:26:10;99191.56;;;13.61;54.27
73870;BME280;64924;42.140;24.762;2023-11-22T09:28:36;99169.59;;;13.56;53.75
73870;BME280;64924;42.140;24.762;2023-11-22T09:31:01;99213.50;;;13.91;53.89
73870;BME280;64924;42.140;24.762;2023-11-22T09:33:31;99212.34;;;13.99;53.03
73870;BME280;64924;42.140;24.762;2023-11-22T09:35:57;99209.09;;;14.09;52.83
73870;BME280;64924;42.140;24.762;2023-11-22T09:38:23;99206.16;;;14.22;52.18
73870;BME280;64924;42.140;24.762;2023-11-22T09:40:50;99210.72;;;14.28;51.83
73870;BME280;64924;42.140;24.762;2023-11-22T09:43:18;99220.88;;;14.39;51.19
73870;BME280;64924;42.140;24.762;2023-11-22T09:45:47;99209.69;;;14.41;50.66
73870;BME280;64924;42.140;24.762;2023-11-22T09:48:18;99210.34;;;14.54;50.70
73870;BME280;64924;42.140;24.762;2023-11-22T09:53:57;99222.81;;;14.50;51.48
73870;BME280;64924;42.140;24.762;2023-11-22T09:56:25;99223.31;;;14.47;52.50
73870;BME280;64924;42.140;24.762;2023-11-22T09:58:53;99225.22;;;14.58;51.75
73870;BME280;64924;42.140;24.762;2023-11-22T10:01:22;99207.44;;;14.67;51.13
73870;BME280;64924;42.140;24.762;2023-11-22T10:03:49;99195.66;;;14.67;50.90
73870;BME280;64924;42.140;24.762;2023-11-22T10:06:15;99207.13;;;14.87;50.80
73870;BME280;64924;42.140;24.762;2023-11-22T10:08:41;99213.69;;;14.98;50.51
73870;BME280;64924;42.140;24.762;2023-11-22T10:11:07;99203.00;;;15.08;50.32
73870;BME280;64924;42.140;24.762;2023-11-22T10:13:33;99201.00;;;15.15;50.07
73870;BME280;64924;42.140;24.762;2023-11-22T10:16:13;99209.19;;;15.38;49.78
73870;BME280;64924;42.140;24.762;2023-11-22T10:18:46;99200.25;;;15.31;49.91
73870;BME280;64924;42.140;24.762;2023-11-22T10:21:27;99197.28;;;15.45;49.63
73870;BME280;64924;42.140;24.762;2023-11-22T10:24:04;99202.91;;;15.50;49.74
73870;BME280;64924;42.140;24.762;2023-11-22T10:26:35;99206.56;;;15.32;50.42
73870;BME280;64924;42.140;24.762;2023-11-22T10:29:01;99219.06;;;15.28;50.13
73870;BME280;64924;42.140;24.762;2023-11-22T10:31:27;99198.25;;;15.15;50.27
73870;BME280;64924;42.140;24.762;2023-11-22T10:33:53;99213.00;;;15.14;51.29
73870;BME280;64924;42.140;24.762;2023-11-22T10:36:21;99196.13;;;15.17;50.94
73870;BME280;64924;42.140;24.762;2023-11-22T10:38:48;99196.22;;;15.22;51.07
73870;BME280;64924;42.140;24.762;2023-11-22T10:41:13;99207.88;;;15.29;50.64
73870;BME280;64924;42.140;24.762;2023-11-22T10:43:40;99203.00;;;15.31;50.61
73870;BME280;64924;42.140;24.762;2023-11-22T10:46:07;99209.19;;;15.38;50.51
73870;BME280;64924;42.140;24.762;2023-11-22T10:48:36;99213.72;;;15.45;50.60
73870;BME280;64924;42.140;24.762;2023-11-22T10:51:04;99206.94;;;15.47;50.82
73870;BME280;64924;42.140;24.762;2023-11-22T10:53:36;99196.47;;;15.44;50.55
73870;BME280;64924;42.140;24.762;2023-11-22T10:56:07;99178.84;;;15.28;50.85
73870;BME280;64924;42.140;24.762;2023-11-22T10:58:40;99207.28;;;15.39;50.65
73870;BME280;64924;42.140;24.762;2023-11-22T11:01:10;99201.59;;;15.41;50.27
73870;BME280;64924;42.140;24.762;2023-11-22T11:03:37;99209.13;;;15.57;50.22
73870;BME280;64924;42.140;24.762;2023-11-22T11:06:08;99198.00;;;15.52;50.62
73870;BME280;64924;42.140;24.762;2023-11-22T11:08:37;99213.72;;;15.68;50.44
73870;BME280;64924;42.140;24.762;2023-11-22T11:11:04;99216.81;;;15.71;50.50
73870;BME280;64924;42.140;24.762;2023-11-22T11:13:31;99213.97;;;15.78;50.51
73870;BME280;64924;42.140;24.762;2023-11-22T11:15:57;99180.38;;;15.71;50.47
73870;BME280;64924;42.140;24.762;2023-11-22T11:18:24;99212.00;;;16.02;49.74
73870;BME280;64924;42.140;24.762;2023-11-22T11:20:56;99216.38;;;16.15;49.70
73870;BME280;64924;42.140;24.762;2023-11-22T11:23:23;99190.91;;;16.02;49.51
73870;BME280;64924;42.140;24.762;2023-11-22T11:25:53;99206.97;;;16.11;49.06
73870;BME280;64924;42.140;24.762;2023-11-22T11:28:19;99209.59;;;16.05;49.08
73870;BME280;64924;42.140;24.762;2023-11-22T11:30:46;99212.81;;;16.02;49.64
73870;BME280;64924;42.140;24.762;2023-11-22T11:33:35;99238.78;;;16.12;50.19
73870;BME280;64924;42.140;24.762;2023-11-22T11:36:02;99231.03;;;16.09;50.36
73870;BME280;64924;42.140;24.762;2023-11-22T11:38:32;99190.72;;;15.92;49.92
73870;BME280;64924;42.140;24.762;2023-11-22T11:41:08;99217.31;;;16.20;49.70
73870;BME280;64924;42.140;24.762;2023-11-22T11:43:47;99222.66;;;16.27;50.05
73870;BME280;64924;42.140;24.762;2023-11-22T11:46:14;99235.56;;;16.15;50.28
73870;BME280;64924;42.140;24.762;2023-11-22T11:48:58;99207.66;;;16.18;49.64
73870;BME280;64924;42.140;24.762;2023-11-22T11:51:28;99234.28;;;16.34;49.46
73870;BME280;64924;42.140;24.762;2023-11-22T11:53:57;99220.66;;;16.22;48.49
73870;BME280;64924;42.140;24.762;2023-11-22T11:56:23;99228.25;;;16.32;48.72
73870;BME280;64924;42.140;24.762;2023-11-22T11:58:51;99228.06;;;16.50;48.58
73870;BME280;64924;42.140;24.762;2023-11-22T12:01:18;99212.78;;;16.54;48.29
73870;BME280;64924;42.140;24.762;2023-11-22T12:03:47;99231.72;;;16.67;47.92
73870;BME280;64924;42.140;24.762;2023-11-22T12:06:17;99236.38;;;16.84;47.84
73870;BME280;64924;42.140;24.762;2023-11-22T12:08:43;99228.75;;;16.86;47.80
73870;BME280;64924;42.140;24.762;2023-11-22T12:11:09;99213.69;;;16.88;47.80
73870;BME280;64924;42.140;24.762;2023-11-22T12:13:36;99209.88;;;16.89;47.88
73870;BME280;64924;42.140;24.762;2023-11-22T12:16:09;99208.78;;;16.90;48.06
73870;BME280;64924;42.140;24.762;2023-11-22T12:18:49;99200.75;;;17.00;47.70
73870;BME280;64924;42.140;24.762;2023-11-22T12:21:18;99200.38;;;16.80;48.29
73870;BME280;64924;42.140;24.762;2023-11-22T12:23:45;99198.78;;;16.67;48.41
73870;BME280;64924;42.140;24.762;2023-11-22T12:26:13;99212.03;;;16.70;48.58
73870;BME280;64924;42.140;24.762;2023-11-22T12:28:45;99215.16;;;16.79;48.61
73870;BME280;64924;42.140;24.762;2023-11-22T12:31:12;99177.13;;;16.54;48.78
73870;BME280;64924;42.140;24.762;2023-11-22T12:33:40;99209.53;;;16.69;49.22
73870;BME280;64924;42.140;24.762;2023-11-22T12:36:07;99202.28;;;16.51;49.20
73870;BME280;64924;42.140;24.762;2023-11-22T12:38:35;99206.31;;;16.60;49.27
73870;BME280;64924;42.140;24.762;2023-11-22T12:41:01;99209.28;;;16.59;49.91
73870;BME280;64924;42.140;24.762;2023-11-22T12:43:31;99226.03;;;16.74;49.72
73870;BME280;64924;42.140;24.762;2023-11-22T12:46:05;99226.66;;;16.93;49.02
73870;BME280;64924;42.140;24.762;2023-11-22T12:48:41;99235.06;;;16.86;49.08
73870;BME280;64924;42.140;24.762;2023-11-22T12:51:17;99243.63;;;16.90;48.82